Time;durP1;ratioP1;P1;durP2;ratioP2;P2;SDS_P1;SDS_P2;PMS_P1;PMS_P2;Temp;Humidity;BMP_temperature;BMP_pressure;BME280_temperature;BME280_humidity;BME280_pressure;Samples;Min_cycle;Max_cycle;Signal;HPM_P1;HPM_P2
2021/08/28 00:02:00;;;;;;;16.25;6.32;;;;;;;;;;5012114;28;20041;-66
2021/08/28 00:05:05;;;;;;;22.33;7.82;;;;;;;;;;5011831;28;20508;-66
2021/08/28 00:08:11;;;;;;;12.63;6.07;;;;;;;;;;5011711;28;20044;-66
2021/08/28 00:11:15;;;;;;;12.88;6.82;;;;;;;;;;5011739;28;20045;-66
2021/08/28 00:14:19;;;;;;;10.55;6.70;;;;;;;;;;5011691;28;20084;-66
2021/08/28 00:17:24;;;;;;;12.82;5.68;;;;;;;;;;5011596;28;20034;-66
2021/08/28 00:20:29;;;;;;;18.92;6.68;;;;;;;;;;5011462;28;20037;-66
2021/08/28 00:23:33;;;;;;;14.43;6.90;;;;;;;;;;5011627;28;20049;-66
2021/08/28 00:26:50;;;;;;;12.10;5.78;;;;;;;;;;4999373;28;20544;-66
2021/08/28 00:29:54;;;;;;;11.10;6.22;;;;;;;;;;5011360;28;20030;-66
2021/08/28 00:33:08;;;;;;;8.18;5.60;;;;;;;;;;5011219;28;20142;-67
2021/08/28 00:36:12;;;;;;;12.32;6.50;;;;;;;;;;5011359;28;20037;-67
2021/08/28 00:39:16;;;;;;;9.18;6.28;;;;;;;;;;5011254;28;20045;-67
2021/08/28 00:42:21;;;;;;;12.13;6.20;;;;;;;;;;5011529;28;20041;-66
2021/08/28 00:45:43;;;;;;;12.77;6.82;;;;;;;;;;5011253;28;20038;-67
2021/08/28 00:48:48;;;;;;;14.43;6.13;;;;;;;;;;5010728;28;20405;-67
2021/08/28 00:51:52;;;;;;;12.63;6.68;;;;;;;;;;4999150;28;20030;-67
2021/08/28 00:54:57;;;;;;;11.93;5.97;;;;;;;;;;4998997;28;20059;-67
2021/08/28 00:58:01;;;;;;;10.25;5.93;;;;;;;;;;4998927;28;20038;-67
2021/08/28 01:01:10;;;;;;;11.32;5.75;;;;;;;;;;4999136;28;20038;-67
2021/08/28 01:04:16;;;;;;;8.52;5.40;;;;;;;;;;5011001;28;20034;-67
2021/08/28 01:07:32;;;;;;;12.45;6.50;;;;;;;;;;4999227;28;20045;-67
2021/08/28 01:11:21;;;;;;;11.18;6.13;;;;;;;;;;5003439;28;20041;-67
2021/08/28 01:14:32;;;;;;;12.48;5.95;;;;;;;;;;5011029;28;20050;-67
2021/08/28 01:17:40;;;;;;;16.48;6.90;;;;;;;;;;4999103;28;20045;-66
2021/08/28 01:21:06;;;;;;;12.65;6.15;;;;;;;;;;4998710;28;20045;-66
2021/08/28 01:24:29;;;;;;;9.50;5.85;;;;;;;;;;5010906;28;20038;-67
2021/08/28 01:27:54;;;;;;;15.90;6.18;;;;;;;;;;4998842;28;20542;-66
2021/08/28 01:31:00;;;;;;;12.52;6.32;;;;;;;;;;4998699;28;20050;-67
2021/08/28 01:34:04;;;;;;;10.65;5.25;;;;;;;;;;4998612;28;20512;-67
2021/08/28 01:37:12;;;;;;;12.82;5.55;;;;;;;;;;4998671;28;20041;-67
2021/08/28 01:40:20;;;;;;;12.03;5.50;;;;;;;;;;5010799;28;20045;-67
2021/08/28 01:43:35;;;;;;;13.02;5.70;;;;;;;;;;5010800;28;20038;-67
2021/08/28 01:46:41;;;;;;;9.38;5.20;;;;;;;;;;4998581;28;20046;-67
2021/08/28 01:49:46;;;;;;;12.55;5.50;;;;;;;;;;5010594;28;20026;-67
2021/08/28 01:52:51;;;;;;;10.43;5.88;;;;;;;;;;4987500;28;20057;-67
2021/08/28 01:55:59;;;;;;;12.57;5.82;;;;;;;;;;4998563;28;20038;-66
2021/08/28 01:59:04;;;;;;;9.57;5.50;;;;;;;;;;4998639;28;20052;-67
2021/08/28 02:02:21;;;;;;;7.38;5.00;;;;;;;;;;5001802;28;20046;-67
2021/08/28 02:05:33;;;;;;;15.60;5.68;;;;;;;;;;5001830;28;20046;-67
2021/08/28 02:08:56;;;;;;;8.65;4.90;;;;;;;;;;5001655;28;20037;-67
2021/08/28 02:12:00;;;;;;;8.35;5.10;;;;;;;;;;5001672;28;20038;-67
2021/08/28 02:15:09;;;;;;;7.35;5.07;;;;;;;;;;5001539;28;20038;-67
2021/08/28 02:18:17;;;;;;;10.38;5.60;;;;;;;;;;5001473;28;20485;-67
2021/08/28 02:21:40;;;;;;;13.85;5.10;;;;;;;;;;5001248;28;20066;-67
2021/08/28 02:24:53;;;;;;;9.88;5.55;;;;;;;;;;5001525;28;20053;-67
2021/08/28 02:28:03;;;;;;;9.07;5.25;;;;;;;;;;5001444;28;20042;-67
2021/08/28 02:31:07;;;;;;;11.85;5.22;;;;;;;;;;5001353;28;20038;-67
2021/08/28 02:34:18;;;;;;;12.77;6.28;;;;;;;;;;5001429;28;20042;-67
2021/08/28 02:37:24;;;;;;;14.73;5.57;;;;;;;;;;5001345;28;20045;-66
2021/08/28 02:40:29;;;;;;;9.70;5.30;;;;;;;;;;5001355;28;20046;-66
2021/08/28 02:43:35;;;;;;;16.63;6.47;;;;;;;;;;5001380;28;20037;-66
2021/08/28 02:46:41;;;;;;;18.48;6.63;;;;;;;;;;5001162;28;20038;-66
2021/08/28 02:49:49;;;;;;;19.58;6.18;;;;;;;;;;5000843;28;20049;-66
2021/08/28 02:53:14;;;;;;;32.78;8.50;;;;;;;;;;5013319;28;20508;-65
2021/08/28 02:56:21;;;;;;;23.55;7.57;;;;;;;;;;5000970;28;20045;-66
2021/08/28 02:59:28;;;;;;;18.20;7.53;;;;;;;;;;5000816;28;20049;-66
2021/08/28 03:02:34;;;;;;;16.98;6.45;;;;;;;;;;5000787;28;20401;-66
2021/08/28 03:05:38;;;;;;;12.57;5.65;;;;;;;;;;5001058;28;20038;-66
2021/08/28 03:08:44;;;;;;;14.85;5.90;;;;;;;;;;5000700;28;20393;-66
2021/08/28 03:11:51;;;;;;;20.95;6.45;;;;;;;;;;5012469;28;20042;-66
2021/08/28 03:14:55;;;;;;;14.63;5.35;;;;;;;;;;5000739;28;20053;-66
2021/08/28 03:18:00;;;;;;;13.48;5.70;;;;;;;;;;5000355;28;20042;-66
2021/08/28 03:21:04;;;;;;;14.55;5.57;;;;;;;;;;5000164;28;20065;-66
2021/08/28 03:24:09;;;;;;;15.40;5.20;;;;;;;;;;5000712;28;20042;-66
2021/08/28 03:27:14;;;;;;;18.65;5.85;;;;;;;;;;5000555;28;20045;-67
2021/08/28 03:30:20;;;;;;;21.10;6.20;;;;;;;;;;5012409;28;20397;-66
2021/08/28 03:33:28;;;;;;;13.02;5.50;;;;;;;;;;5000161;28;20050;-66
2021/08/28 03:36:34;;;;;;;16.75;5.50;;;;;;;;;;5000131;28;20033;-66
2021/08/28 03:39:40;;;;;;;14.43;5.85;;;;;;;;;;4999958;28;20046;-66
2021/08/28 03:42:45;;;;;;;9.93;5.45;;;;;;;;;;4999935;28;20057;-66
2021/08/28 03:45:53;;;;;;;13.88;5.50;;;;;;;;;;4989013;28;20030;-66
2021/08/28 03:48:58;;;;;;;17.88;6.18;;;;;;;;;;5000127;28;20049;-66
2021/08/28 03:52:03;;;;;;;14.43;6.15;;;;;;;;;;5000083;28;20034;-66
2021/08/28 03:55:07;;;;;;;10.68;5.90;;;;;;;;;;4999781;28;20052;-66
2021/08/28 03:58:13;;;;;;;16.98;6.10;;;;;;;;;;4999754;28;20033;-66
2021/08/28 04:01:20;;;;;;;15.38;5.93;;;;;;;;;;4999820;28;20038;-67
2021/08/28 04:04:25;;;;;;;15.05;5.88;;;;;;;;;;4999903;28;20034;-65
2021/08/28 04:07:29;;;;;;;13.48;5.70;;;;;;;;;;4999881;28;20675;-66
2021/08/28 04:10:33;;;;;;;14.52;5.90;;;;;;;;;;5012474;28;20034;-66
2021/08/28 04:13:41;;;;;;;11.98;5.78;;;;;;;;;;5000765;28;20046;-67
2021/08/28 04:16:46;;;;;;;13.18;5.55;;;;;;;;;;5000243;28;20057;-66
2021/08/28 04:19:50;;;;;;;15.65;5.50;;;;;;;;;;5000110;28;20038;-66
2021/08/28 04:23:02;;;;;;;11.45;6.05;;;;;;;;;;4999770;28;20045;-66
2021/08/28 04:26:38;;;;;;;11.27;5.53;;;;;;;;;;5011590;28;20045;-66
2021/08/28 04:29:42;;;;;;;12.90;5.85;;;;;;;;;;4999337;28;20033;-66
2021/08/28 04:32:47;;;;;;;13.50;6.72;;;;;;;;;;4999224;28;20461;-66
2021/08/28 04:35:51;;;;;;;12.77;7.38;;;;;;;;;;4999316;28;20045;-66
2021/08/28 04:38:56;;;;;;;14.70;7.05;;;;;;;;;;4999143;28;20508;-67
2021/08/28 04:42:00;;;;;;;15.65;7.72;;;;;;;;;;4999737;28;20063;-67
2021/08/28 04:45:07;;;;;;;15.95;7.78;;;;;;;;;;5013386;28;20030;-68
2021/08/28 04:48:32;;;;;;;18.75;8.52;;;;;;;;;;5011374;28;20401;-66
2021/08/28 04:51:40;;;;;;;16.73;8.35;;;;;;;;;;4999232;28;20048;-66
2021/08/28 04:54:46;;;;;;;15.13;8.32;;;;;;;;;;4999088;28;20540;-66
2021/08/28 04:57:51;;;;;;;11.73;8.05;;;;;;;;;;4999533;28;20382;-69
2021/08/28 05:00:55;;;;;;;14.68;7.60;;;;;;;;;;4999235;28;20038;-68
2021/08/28 05:04:24;;;;;;;13.18;8.23;;;;;;;;;;4999097;28;20033;-65
2021/08/28 05:07:29;;;;;;;17.63;9.27;;;;;;;;;;4998987;28;20047;-65
2021/08/28 05:10:36;;;;;;;14.07;8.43;;;;;;;;;;4999176;28;20034;-66
2021/08/28 05:13:41;;;;;;;14.45;8.50;;;;;;;;;;4999045;28;20042;-66
2021/08/28 05:16:45;;;;;;;14.98;8.25;;;;;;;;;;4999023;28;20034;-67
2021/08/28 05:20:08;;;;;;;24.00;10.23;;;;;;;;;;5010958;28;20045;-67
2021/08/28 05:23:42;;;;;;;22.13;9.40;;;;;;;;;;5011167;28;20053;-67
2021/08/28 05:27:12;;;;;;;19.35;9.52;;;;;;;;;;5011158;28;20046;-67
2021/08/28 05:30:17;;;;;;;18.02;9.13;;;;;;;;;;4987717;28;20045;-67
2021/08/28 05:33:22;;;;;;;18.15;8.32;;;;;;;;;;4998778;28;20042;-65
2021/08/28 05:36:26;;;;;;;14.05;8.10;;;;;;;;;;5002295;28;20508;-66
2021/08/28 05:39:53;;;;;;;19.77;8.00;;;;;;;;;;5014631;28;20045;-66
2021/08/28 05:43:00;;;;;;;15.50;8.48;;;;;;;;;;5002202;28;20045;-65
2021/08/28 05:46:08;;;;;;;19.83;8.63;;;;;;;;;;5002146;28;20049;-65
2021/08/28 05:49:36;;;;;;;15.23;8.95;;;;;;;;;;5002111;28;20038;-66
2021/08/28 05:52:45;;;;;;;12.98;7.18;;;;;;;;;;5002301;28;20042;-66
2021/08/28 05:55:49;;;;;;;13.15;7.65;;;;;;;;;;5002065;28;20041;-66
2021/08/28 05:58:53;;;;;;;14.45;8.15;;;;;;;;;;5014104;28;20589;-66
2021/08/28 06:01:58;;;;;;;16.63;9.13;;;;;;;;;;5001936;28;20044;-66
2021/08/28 06:05:08;;;;;;;15.88;9.52;;;;;;;;;;5001950;28;20051;-66
2021/08/28 06:08:38;;;;;;;16.60;8.95;;;;;;;;;;5013156;28;20668;-67
2021/08/28 06:12:14;;;;;;;16.38;8.95;;;;;;;;;;4994722;28;20037;-66
2021/08/28 06:15:51;;;;;;;14.80;9.05;;;;;;;;;;5013814;28;20045;-66
2021/08/28 06:18:58;;;;;;;16.92;8.65;;;;;;;;;;5001509;28;20042;-66
2021/08/28 06:22:03;;;;;;;16.77;7.93;;;;;;;;;;5013525;28;20408;-66
2021/08/28 06:25:09;;;;;;;14.18;7.07;;;;;;;;;;5001993;28;20504;-67
2021/08/28 06:28:15;;;;;;;11.13;6.68;;;;;;;;;;5001356;28;20045;-66
2021/08/28 06:31:21;;;;;;;14.80;7.30;;;;;;;;;;5001301;28;20062;-66
2021/08/28 06:34:25;;;;;;;11.93;6.95;;;;;;;;;;5001142;28;20054;-66
2021/08/28 06:37:30;;;;;;;17.38;6.35;;;;;;;;;;5001375;28;20048;-67
2021/08/28 06:40:53;;;;;;;12.40;6.53;;;;;;;;;;5013302;28;20046;-66
2021/08/28 06:44:19;;;;;;;12.95;5.72;;;;;;;;;;5013132;28;20508;-66
2021/08/28 06:47:49;;;;;;;12.98;5.50;;;;;;;;;;5004784;28;20053;-66
2021/08/28 06:51:12;;;;;;;8.07;4.82;;;;;;;;;;5013080;28;20504;-67
2021/08/28 06:54:39;;;;;;;11.02;4.75;;;;;;;;;;5008385;28;20076;-66
2021/08/28 06:58:19;;;;;;;14.60;4.70;;;;;;;;;;4953167;28;20050;-66
2021/08/28 07:01:42;;;;;;;7.97;4.97;;;;;;;;;;5012649;28;20046;-66
2021/08/28 07:05:11;;;;;;;15.88;5.22;;;;;;;;;;5000735;28;20037;-65
2021/08/28 07:08:21;;;;;;;11.50;4.57;;;;;;;;;;5000973;28;20057;-66
2021/08/28 07:11:25;;;;;;;15.80;5.32;;;;;;;;;;5000769;28;20042;-65
2021/08/28 07:14:30;;;;;;;20.55;6.18;;;;;;;;;;5000631;28;20413;-67
2021/08/28 07:17:35;;;;;;;12.73;5.00;;;;;;;;;;5000336;28;20057;-67
2021/08/28 07:20:39;;;;;;;16.77;4.93;;;;;;;;;;5000204;28;20057;-66
2021/08/28 07:23:44;;;;;;;13.93;5.32;;;;;;;;;;5000441;28;20045;-67
2021/08/28 07:26:59;;;;;;;16.73;4.95;;;;;;;;;;5000405;28;20030;-67
2021/08/28 07:30:24;;;;;;;13.38;4.68;;;;;;;;;;5012295;28;20045;-69
2021/08/28 07:33:28;;;;;;;12.23;4.80;;;;;;;;;;5000284;28;20053;-66
2021/08/28 07:36:32;;;;;;;8.63;4.38;;;;;;;;;;5011340;28;20048;-66
2021/08/28 07:39:38;;;;;;;12.02;5.07;;;;;;;;;;4999560;28;20616;-66
2021/08/28 07:42:42;;;;;;;20.15;4.78;;;;;;;;;;5012177;28;20046;-67
2021/08/28 07:45:47;;;;;;;12.65;4.30;;;;;;;;;;5000097;28;20034;-67
2021/08/28 07:48:55;;;;;;;12.57;4.20;;;;;;;;;;4999755;28;20506;-67
2021/08/28 07:51:59;;;;;;;14.90;4.85;;;;;;;;;;4998272;28;20048;-67
2021/08/28 07:55:03;;;;;;;16.00;5.22;;;;;;;;;;4998829;28;20042;-67
2021/08/28 07:58:07;;;;;;;10.07;4.70;;;;;;;;;;4998482;28;20045;-65
2021/08/28 08:01:13;;;;;;;13.75;5.03;;;;;;;;;;4999628;28;20056;-65
2021/08/28 08:04:23;;;;;;;12.52;5.05;;;;;;;;;;4999519;28;20041;-64
2021/08/28 08:07:42;;;;;;;9.93;4.57;;;;;;;;;;4999445;28;20059;-65
2021/08/28 08:11:05;;;;;;;9.93;4.78;;;;;;;;;;5011425;28;20034;-66
2021/08/28 08:14:27;;;;;;;10.20;4.80;;;;;;;;;;4999309;28;20053;-72
2021/08/28 08:17:50;;;;;;;13.43;4.70;;;;;;;;;;5011124;28;20046;-65
2021/08/28 08:21:13;;;;;;;11.40;5.28;;;;;;;;;;5011146;28;20049;-67
2021/08/28 08:24:26;;;;;;;13.07;6.10;;;;;;;;;;4997702;28;20045;-68
2021/08/28 08:27:48;;;;;;;14.38;5.03;;;;;;;;;;5010442;28;20053;-70
2021/08/28 08:31:00;;;;;;;10.13;5.30;;;;;;;;;;4999496;28;20048;-70
2021/08/28 08:34:05;;;;;;;9.63;5.22;;;;;;;;;;4999330;28;20428;-69
2021/08/28 08:37:12;;;;;;;10.32;5.18;;;;;;;;;;4999111;28;20038;-70
2021/08/28 08:40:16;;;;;;;8.38;4.50;;;;;;;;;;4999265;28;20042;-69
2021/08/28 08:43:22;;;;;;;10.88;5.75;;;;;;;;;;4999082;28;20049;-67
2021/08/28 08:46:28;;;;;;;13.18;5.03;;;;;;;;;;4999086;28;20033;-68
2021/08/28 08:49:33;;;;;;;16.73;5.45;;;;;;;;;;4998972;28;20042;-69
2021/08/28 08:52:39;;;;;;;11.95;4.88;;;;;;;;;;4987996;28;20037;-68
2021/08/28 08:56:00;;;;;;;13.95;5.28;;;;;;;;;;4999051;28;20246;-68
2021/08/28 08:59:04;;;;;;;13.98;4.72;;;;;;;;;;4998740;28;20034;-69
2021/08/28 09:02:09;;;;;;;12.77;4.97;;;;;;;;;;4998738;28;20042;-69
2021/08/28 09:05:42;;;;;;;8.88;6.13;;;;;;;;;;5010796;28;20038;-70
2021/08/28 09:08:47;;;;;;;11.88;4.60;;;;;;;;;;4998220;28;20042;-68
2021/08/28 09:11:59;;;;;;;12.98;4.88;;;;;;;;;;5014369;28;20450;-67
2021/08/28 09:15:04;;;;;;;5.18;3.80;;;;;;;;;;5014737;28;20046;-67
2021/08/28 09:18:09;;;;;;;13.38;5.03;;;;;;;;;;5014697;28;20042;-69
2021/08/28 09:21:13;;;;;;;9.77;4.28;;;;;;;;;;5014422;28;20053;-68
2021/08/28 09:24:17;;;;;;;11.80;4.60;;;;;;;;;;5014842;28;20038;-67
2021/08/28 09:27:35;;;;;;;8.70;4.80;;;;;;;;;;5014380;28;20516;-67
2021/08/28 09:30:40;;;;;;;10.63;4.40;;;;;;;;;;5014204;28;20045;-66
2021/08/28 09:33:45;;;;;;;9.93;6.38;;;;;;;;;;5014450;28;20034;-68
2021/08/28 09:36:52;;;;;;;7.85;5.00;;;;;;;;;;5014658;28;20045;-68
2021/08/28 09:40:00;;;;;;;11.52;4.57;;;;;;;;;;5014533;28;20033;-68
2021/08/28 09:43:08;;;;;;;13.52;4.90;;;;;;;;;;5014542;28;20347;-69
2021/08/28 09:46:12;;;;;;;9.32;4.45;;;;;;;;;;5014397;28;20240;-66
2021/08/28 09:49:22;;;;;;;13.00;4.70;;;;;;;;;;5012632;28;20407;-67
2021/08/28 09:52:27;;;;;;;10.60;4.95;;;;;;;;;;5014121;28;20049;-67
2021/08/28 09:55:32;;;;;;;13.80;4.80;;;;;;;;;;5014087;28;20061;-66
2021/08/28 09:58:40;;;;;;;8.02;4.38;;;;;;;;;;5013933;28;20038;-66
2021/08/28 10:01:47;;;;;;;9.48;4.40;;;;;;;;;;5013844;28;20042;-67
2021/08/28 10:04:52;;;;;;;12.30;4.78;;;;;;;;;;5013886;28;20042;-66
2021/08/28 10:07:58;;;;;;;10.68;5.20;;;;;;;;;;5013524;28;20409;-66
2021/08/28 10:11:05;;;;;;;10.15;4.88;;;;;;;;;;5013983;28;20042;-66
2021/08/28 10:14:09;;;;;;;12.65;5.45;;;;;;;;;;5013606;28;20045;-66
2021/08/28 10:17:14;;;;;;;9.63;4.65;;;;;;;;;;5013575;28;20049;-66
2021/08/28 10:20:19;;;;;;;10.80;4.60;;;;;;;;;;5013402;28;20038;-66
2021/08/28 10:23:29;;;;;;;11.70;5.07;;;;;;;;;;5013465;28;20057;-66
2021/08/28 10:26:33;;;;;;;8.05;4.50;;;;;;;;;;5013416;28;20045;-66
2021/08/28 10:29:37;;;;;;;10.98;4.47;;;;;;;;;;5013825;28;20030;-66
2021/08/28 10:32:42;;;;;;;7.47;4.25;;;;;;;;;;5013201;28;20515;-66
2021/08/28 10:35:46;;;;;;;11.27;4.68;;;;;;;;;;5013423;28;20053;-67
2021/08/28 10:38:52;;;;;;;8.07;4.22;;;;;;;;;;5001166;28;20524;-66
2021/08/28 10:41:56;;;;;;;9.15;4.13;;;;;;;;;;5013186;28;20038;-66
2021/08/28 10:45:01;;;;;;;9.43;4.10;;;;;;;;;;5013458;28;20045;-66
2021/08/28 10:48:14;;;;;;;12.20;4.28;;;;;;;;;;5000267;28;20041;-67
2021/08/28 10:51:31;;;;;;;8.02;4.10;;;;;;;;;;4999789;28;20048;-67
2021/08/28 10:54:35;;;;;;;10.80;4.47;;;;;;;;;;5012766;28;20050;-66
2021/08/28 10:57:41;;;;;;;9.10;4.18;;;;;;;;;;5012144;28;20042;-66
2021/08/28 11:00:47;;;;;;;9.90;3.83;;;;;;;;;;5012911;28;20046;-66
2021/08/28 11:03:51;;;;;;;13.15;3.67;;;;;;;;;;5012899;28;20037;-66
2021/08/28 11:07:14;;;;;;;12.85;5.03;;;;;;;;;;5012763;28;20049;-66
2021/08/28 11:10:21;;;;;;;12.65;4.15;;;;;;;;;;5000794;28;20041;-66
2021/08/28 11:13:45;;;;;;;13.60;4.03;;;;;;;;;;5012603;28;20038;-66
2021/08/28 11:16:50;;;;;;;9.85;3.85;;;;;;;;;;5012405;28;20034;-67
2021/08/28 11:19:59;;;;;;;9.00;4.05;;;;;;;;;;5012587;28;20042;-67
2021/08/28 11:23:04;;;;;;;6.45;3.90;;;;;;;;;;5012630;28;20050;-68
2021/08/28 11:26:08;;;;;;;11.05;4.43;;;;;;;;;;5012678;28;20042;-67
2021/08/28 11:29:26;;;;;;;8.18;3.65;;;;;;;;;;5012587;28;20034;-67
2021/08/28 11:32:31;;;;;;;10.23;3.88;;;;;;;;;;5011885;28;20498;-67
2021/08/28 11:35:39;;;;;;;13.50;4.20;;;;;;;;;;5012198;28;20049;-67
2021/08/28 11:38:54;;;;;;;14.38;4.43;;;;;;;;;;5012295;28;20045;-67
2021/08/28 11:42:00;;;;;;;7.15;4.13;;;;;;;;;;5000417;28;20045;-67
2021/08/28 11:45:05;;;;;;;18.48;4.45;;;;;;;;;;5000417;28;20046;-67
2021/08/28 11:48:11;;;;;;;7.90;4.03;;;;;;;;;;5012158;28;20042;-67
2021/08/28 11:51:20;;;;;;;8.20;3.83;;;;;;;;;;5012012;28;20046;-67
2021/08/28 11:54:24;;;;;;;12.10;4.10;;;;;;;;;;5012294;28;20050;-67
2021/08/28 11:57:28;;;;;;;11.30;4.25;;;;;;;;;;5011851;28;20038;-67
2021/08/28 12:00:33;;;;;;;11.13;4.45;;;;;;;;;;5011976;28;20053;-67
2021/08/28 12:03:37;;;;;;;13.05;4.57;;;;;;;;;;5012237;28;20045;-67
2021/08/28 12:06:43;;;;;;;11.77;4.63;;;;;;;;;;5011952;28;20046;-67
2021/08/28 12:09:47;;;;;;;12.38;4.43;;;;;;;;;;5012021;28;20038;-67
2021/08/28 12:12:56;;;;;;;12.32;4.63;;;;;;;;;;5011808;28;20647;-67
2021/08/28 12:16:00;;;;;;;16.00;4.80;;;;;;;;;;5011619;28;20054;-66
2021/08/28 12:19:06;;;;;;;13.05;4.85;;;;;;;;;;5011372;28;20509;-65
2021/08/28 12:22:11;;;;;;;14.13;4.50;;;;;;;;;;5010202;28;20065;-67
2021/08/28 12:25:16;;;;;;;14.63;4.95;;;;;;;;;;5011508;28;20266;-67
2021/08/28 12:28:19;;;;;;;13.55;4.30;;;;;;;;;;5011735;28;20042;-67
2021/08/28 12:31:24;;;;;;;13.13;4.40;;;;;;;;;;5011408;28;20029;-66
2021/08/28 12:34:30;;;;;;;19.73;4.60;;;;;;;;;;5011653;28;20046;-66
2021/08/28 12:37:34;;;;;;;13.88;4.45;;;;;;;;;;5011293;28;20041;-66
2021/08/28 12:40:39;;;;;;;14.75;4.78;;;;;;;;;;5010401;28;20041;-66
2021/08/28 12:43:44;;;;;;;17.10;4.97;;;;;;;;;;5010642;28;20041;-69
2021/08/28 12:46:49;;;;;;;10.52;4.53;;;;;;;;;;5011062;28;20501;-67
2021/08/28 12:49:54;;;;;;;14.27;4.30;;;;;;;;;;5011124;28;20034;-67
2021/08/28 12:53:06;;;;;;;11.98;4.75;;;;;;;;;;5011406;28;20393;-67
2021/08/28 12:56:10;;;;;;;14.80;5.03;;;;;;;;;;5011428;28;20046;-67
2021/08/28 12:59:17;;;;;;;15.23;5.32;;;;;;;;;;5011393;28;20030;-67
2021/08/28 13:02:22;;;;;;;9.75;4.78;;;;;;;;;;5011266;28;20524;-67
2021/08/28 13:05:28;;;;;;;15.57;4.95;;;;;;;;;;5011012;28;20493;-67
2021/08/28 13:08:33;;;;;;;9.95;4.70;;;;;;;;;;5011116;28;20053;-68
2021/08/28 13:11:37;;;;;;;13.73;5.10;;;;;;;;;;5011003;28;20399;-68
2021/08/28 13:14:52;;;;;;;17.05;5.75;;;;;;;;;;5010938;28;20060;-67
2021/08/28 13:18:04;;;;;;;7.47;4.45;;;;;;;;;;5011037;28;20038;-67
2021/08/28 13:21:08;;;;;;;13.68;4.97;;;;;;;;;;5010877;28;20046;-68
2021/08/28 13:24:13;;;;;;;9.32;4.65;;;;;;;;;;5010913;28;20386;-67
2021/08/28 13:27:18;;;;;;;18.92;5.15;;;;;;;;;;5010672;28;20034;-68
2021/08/28 13:30:24;;;;;;;13.60;4.72;;;;;;;;;;5010485;28;20609;-68
2021/08/28 13:33:30;;;;;;;13.65;4.82;;;;;;;;;;5010771;28;20042;-68
2021/08/28 13:36:34;;;;;;;17.90;5.30;;;;;;;;;;5010676;28;20489;-68
2021/08/28 13:39:39;;;;;;;12.25;5.13;;;;;;;;;;5010860;28;20038;-68
2021/08/28 13:42:45;;;;;;;14.88;5.28;;;;;;;;;;5010982;28;20388;-68
2021/08/28 13:45:50;;;;;;;19.55;5.55;;;;;;;;;;5010764;28;20038;-68
2021/08/28 13:48:55;;;;;;;9.90;4.85;;;;;;;;;;5010644;28;20045;-68
2021/08/28 13:51:59;;;;;;;17.13;5.10;;;;;;;;;;5011061;28;20038;-68
2021/08/28 13:55:04;;;;;;;13.27;5.18;;;;;;;;;;5010815;28;20063;-68
2021/08/28 13:58:11;;;;;;;14.32;4.72;;;;;;;;;;5013919;28;20069;-68
2021/08/28 14:01:15;;;;;;;15.50;4.88;;;;;;;;;;5014252;28;20046;-68
2021/08/28 14:04:19;;;;;;;12.35;4.15;;;;;;;;;;5014182;28;20046;-69
2021/08/28 14:07:24;;;;;;;12.65;4.13;;;;;;;;;;5013252;28;20042;-69
2021/08/28 14:10:28;;;;;;;11.30;4.30;;;;;;;;;;5014071;28;20049;-69
2021/08/28 14:13:33;;;;;;;6.63;4.43;;;;;;;;;;5013901;28;20047;-69
2021/08/28 14:16:37;;;;;;;12.40;4.28;;;;;;;;;;5013717;28;20042;-70
2021/08/28 14:19:42;;;;;;;8.77;3.80;;;;;;;;;;5014085;28;20042;-70
2021/08/28 14:22:46;;;;;;;12.88;4.28;;;;;;;;;;5014063;28;20062;-69
2021/08/28 14:25:50;;;;;;;11.40;4.72;;;;;;;;;;5013935;28;20041;-71
2021/08/28 14:28:57;;;;;;;10.75;4.10;;;;;;;;;;5013892;28;20041;-70
2021/08/28 14:32:01;;;;;;;10.52;4.40;;;;;;;;;;5013787;28;20227;-69
2021/08/28 14:35:07;;;;;;;6.72;3.85;;;;;;;;;;5013676;28;20050;-69
2021/08/28 14:38:12;;;;;;;7.93;4.43;;;;;;;;;;5013267;28;20038;-70
2021/08/28 14:41:17;;;;;;;13.20;4.60;;;;;;;;;;5013428;28;20470;-70
2021/08/28 14:44:21;;;;;;;9.65;4.07;;;;;;;;;;5013357;28;20052;-69
2021/08/28 14:47:28;;;;;;;11.07;5.00;;;;;;;;;;5013309;28;20034;-69
2021/08/28 14:50:32;;;;;;;6.93;4.32;;;;;;;;;;5013880;28;20045;-70
2021/08/28 14:53:39;;;;;;;12.40;4.50;;;;;;;;;;5001446;28;20030;-68
2021/08/28 14:56:43;;;;;;;8.75;4.43;;;;;;;;;;5013064;28;20042;-69
2021/08/28 14:59:48;;;;;;;11.07;4.50;;;;;;;;;;5000863;28;20034;-67
2021/08/28 15:02:52;;;;;;;15.15;5.43;;;;;;;;;;5013014;28;20516;-70
2021/08/28 15:05:56;;;;;;;12.38;4.60;;;;;;;;;;5013112;28;20375;-70
2021/08/28 15:09:01;;;;;;;13.80;4.47;;;;;;;;;;5012388;28;20281;-69
2021/08/28 15:12:06;;;;;;;8.55;4.55;;;;;;;;;;5012653;28;20034;-69
2021/08/28 15:15:11;;;;;;;9.90;4.50;;;;;;;;;;5012207;28;20046;-69
2021/08/28 15:18:15;;;;;;;10.10;4.80;;;;;;;;;;5012230;28;20133;-68
2021/08/28 15:21:19;;;;;;;9.50;4.50;;;;;;;;;;5012318;28;20088;-67
2021/08/28 15:24:24;;;;;;;12.73;4.80;;;;;;;;;;5012529;28;20526;-68
2021/08/28 15:27:28;;;;;;;13.10;5.28;;;;;;;;;;5012422;28;20042;-69
2021/08/28 15:30:32;;;;;;;17.80;6.00;;;;;;;;;;5012234;28;20049;-68
2021/08/28 15:33:38;;;;;;;12.80;5.90;;;;;;;;;;5012476;28;20051;-68
2021/08/28 15:36:43;;;;;;;10.85;5.15;;;;;;;;;;5012426;28;20076;-68
2021/08/28 15:39:50;;;;;;;10.77;5.68;;;;;;;;;;5012279;28;20038;-67
2021/08/28 15:42:54;;;;;;;9.13;4.32;;;;;;;;;;5012001;28;20466;-69
2021/08/28 15:45:59;;;;;;;11.60;4.78;;;;;;;;;;5012575;28;20632;-68
2021/08/28 15:49:03;;;;;;;12.70;5.68;;;;;;;;;;5012184;28;20034;-68
2021/08/28 15:52:08;;;;;;;14.27;4.78;;;;;;;;;;5011912;28;20041;-69
2021/08/28 15:55:13;;;;;;;15.23;4.85;;;;;;;;;;4999864;28;20057;-69
2021/08/28 15:58:18;;;;;;;6.32;3.60;;;;;;;;;;5011792;28;20061;-69
2021/08/28 16:01:22;;;;;;;12.15;4.82;;;;;;;;;;5012133;28;20038;-68
2021/08/28 16:04:26;;;;;;;9.88;4.30;;;;;;;;;;5011605;28;20038;-70
2021/08/28 16:07:31;;;;;;;9.40;4.53;;;;;;;;;;5011731;28;20033;-68
2021/08/28 16:10:38;;;;;;;10.75;4.57;;;;;;;;;;5011512;28;20042;-69
2021/08/28 16:13:45;;;;;;;9.57;4.47;;;;;;;;;;4999338;28;20501;-68
2021/08/28 16:16:50;;;;;;;17.27;4.25;;;;;;;;;;5010698;28;20473;-68
2021/08/28 16:19:54;;;;;;;11.45;4.53;;;;;;;;;;4998677;28;20042;-68
2021/08/28 16:22:59;;;;;;;8.30;4.45;;;;;;;;;;5011189;28;20045;-68
2021/08/28 16:26:03;;;;;;;13.75;3.80;;;;;;;;;;5011367;28;20485;-68
2021/08/28 16:29:07;;;;;;;7.40;4.45;;;;;;;;;;5011370;28;20034;-70
2021/08/28 16:32:12;;;;;;;15.05;4.68;;;;;;;;;;5011004;28;20041;-68
2021/08/28 16:35:19;;;;;;;8.10;4.30;;;;;;;;;;5010918;28;20056;-68
2021/08/28 16:38:24;;;;;;;10.63;3.90;;;;;;;;;;5010895;28;20038;-67
2021/08/28 16:41:28;;;;;;;9.63;4.20;;;;;;;;;;5011079;28;20038;-68
2021/08/28 16:44:32;;;;;;;9.60;3.67;;;;;;;;;;4998785;28;20041;-68
2021/08/28 16:47:37;;;;;;;11.57;4.40;;;;;;;;;;5011025;28;20038;-68
2021/08/28 16:50:42;;;;;;;12.20;5.32;;;;;;;;;;5010736;28;20130;-68
2021/08/28 16:53:46;;;;;;;14.23;4.47;;;;;;;;;;5010866;28;20060;-67
2021/08/28 16:56:51;;;;;;;10.77;4.30;;;;;;;;;;4998917;28;20038;-68
2021/08/28 16:59:55;;;;;;;8.43;3.97;;;;;;;;;;5011016;28;20038;-68
2021/08/28 17:03:00;;;;;;;13.65;4.28;;;;;;;;;;5010831;28;20395;-67
2021/08/28 17:06:04;;;;;;;12.15;4.00;;;;;;;;;;5010953;28;20500;-68
2021/08/28 17:09:09;;;;;;;13.43;4.70;;;;;;;;;;4998658;28;20044;-69
2021/08/28 17:12:13;;;;;;;15.18;4.30;;;;;;;;;;5010708;28;20053;-67
2021/08/28 17:15:17;;;;;;;9.77;4.07;;;;;;;;;;5010454;28;20053;-69
2021/08/28 17:18:22;;;;;;;10.45;3.97;;;;;;;;;;5010693;28;20042;-69
2021/08/28 17:21:26;;;;;;;11.90;3.70;;;;;;;;;;5010487;28;20045;-69
2021/08/28 17:24:30;;;;;;;9.45;3.75;;;;;;;;;;5010707;28;20049;-68
2021/08/28 17:27:35;;;;;;;9.73;3.95;;;;;;;;;;4998717;28;20042;-68
2021/08/28 17:30:39;;;;;;;9.90;3.80;;;;;;;;;;4999726;28;20045;-67
2021/08/28 17:33:43;;;;;;;19.45;5.07;;;;;;;;;;5014514;28;20382;-69
2021/08/28 17:36:49;;;;;;;10.00;4.35;;;;;;;;;;5014671;28;20046;-69
2021/08/28 17:39:54;;;;;;;12.68;4.53;;;;;;;;;;5014742;28;20042;-69
2021/08/28 17:42:58;;;;;;;25.73;5.00;;;;;;;;;;5014286;28;20038;-68
2021/08/28 17:46:03;;;;;;;14.60;3.85;;;;;;;;;;5014494;28;20057;-69
2021/08/28 17:49:07;;;;;;;11.75;4.10;;;;;;;;;;5014374;28;20030;-68
2021/08/28 17:52:11;;;;;;;8.82;4.50;;;;;;;;;;5014046;28;20247;-69
2021/08/28 17:55:16;;;;;;;13.40;4.00;;;;;;;;;;5013875;28;20037;-69
2021/08/28 17:58:20;;;;;;;17.40;4.63;;;;;;;;;;5001848;28;20045;-68
2021/08/28 18:01:25;;;;;;;12.77;3.78;;;;;;;;;;5013805;28;20053;-69
2021/08/28 18:04:30;;;;;;;9.35;4.18;;;;;;;;;;5013926;28;20034;-69
2021/08/28 18:07:35;;;;;;;14.00;3.88;;;;;;;;;;5013809;28;20041;-67
2021/08/28 18:10:39;;;;;;;11.63;4.40;;;;;;;;;;5012387;28;20042;-66
2021/08/28 18:13:44;;;;;;;12.48;4.38;;;;;;;;;;5013270;28;20060;-69
2021/08/28 18:16:48;;;;;;;12.77;4.32;;;;;;;;;;5013605;28;20048;-67
2021/08/28 18:19:52;;;;;;;12.45;4.30;;;;;;;;;;5013459;28;20042;-67
2021/08/28 18:22:57;;;;;;;13.20;4.30;;;;;;;;;;5013481;28;20050;-67
2021/08/28 18:26:02;;;;;;;9.40;4.47;;;;;;;;;;5013500;28;20038;-65
2021/08/28 18:29:08;;;;;;;8.68;4.32;;;;;;;;;;5013516;28;20042;-66
2021/08/28 18:32:13;;;;;;;14.25;5.13;;;;;;;;;;5013273;28;20378;-66
2021/08/28 18:35:37;;;;;;;10.55;4.53;;;;;;;;;;5013186;28;20049;-66